OAZ weather

Camp Bastion Airport
Helmand Province, Afghanistan

Public forecast

Using degrees Celsius for public forecast. Weather courtesy of forecast.io.

Closest aviation weather report (METAR) to Camp Bastion Airport

Closest report is Kandahar Airport, 85.7 nm (158.7 km) ESE. Retrieved 2019/12/08 01:56 UTC (48 minutes ago):

OAKN 080156Z 04006KT 9999 CLR 05/M05 A3023 RMK AO2A SLP218 WND DATA ESTMD T00461050

Closest aviation forecast (TAF) to Camp Bastion Airport

Closest forecast is Kandahar Airport, 85.7 nm (158.7 km) ESE. Retrieved 2019-12-08 23:09 UTC (0 seconds ago):

TAF TAF OAKN 072301Z 0723/0905 VRB06KT 9999 SKC QNH3011INS BECMG 0814/0815 VRB06KT 9999 BKN090 QNH3012INS BECMG 0900/0901 VRB06KT 8000 -SHRA OVC035 QNH3011INS TX18/0811Z TN06/0802Z